createdAt,value
2017-07-06T00:00:29.175Z,52.60
2017-07-06T00:02:55.238Z,53.00
2017-07-06T00:05:21.306Z,53.30
2017-07-06T00:07:47.357Z,52.70
2017-07-06T00:10:13.426Z,53.10
2017-07-06T00:12:39.481Z,52.90
2017-07-06T00:15:05.543Z,52.50
2017-07-06T00:17:31.593Z,53.00
2017-07-06T00:20:33.444Z,53.40
2017-07-06T00:23:02.677Z,54.00
2017-07-06T00:25:28.738Z,53.50
2017-07-06T00:27:54.790Z,53.60
2017-07-06T00:30:20.904Z,52.70
2017-07-06T00:32:46.926Z,53.60
2017-07-06T00:35:12.981Z,53.50
2017-07-06T00:37:39.783Z,53.40
2017-07-06T00:40:05.829Z,53.40
2017-07-06T00:42:31.886Z,53.60
2017-07-06T00:44:57.946Z,53.70
2017-07-06T00:47:23.996Z,53.70
2017-07-06T00:49:50.038Z,53.40
2017-07-06T00:52:16.857Z,53.60
2017-07-06T00:54:42.910Z,53.50
2017-07-06T00:57:08.969Z,53.60
2017-07-06T00:59:35.050Z,53.20
2017-07-06T01:02:01.110Z,53.50
2017-07-06T01:04:27.157Z,52.80
2017-07-06T01:06:53.219Z,53.10
2017-07-06T01:09:19.271Z,53.40
2017-07-06T01:11:46.063Z,53.10
2017-07-06T01:14:12.131Z,53.10
2017-07-06T01:37:52.181Z,53.80
2017-07-06T01:40:18.255Z,54.00
2017-07-06T01:42:44.346Z,53.90
2017-07-06T01:45:10.406Z,54.20
2017-07-06T01:47:36.481Z,53.90
2017-07-06T01:50:02.546Z,54.00
2017-07-06T01:52:28.606Z,54.00
2017-07-06T01:54:54.657Z,54.20
2017-07-06T01:57:20.751Z,54.50
2017-07-06T01:59:46.826Z,54.10
2017-07-06T02:02:12.883Z,54.20
2017-07-06T02:04:38.940Z,54.50
2017-07-06T02:07:05.760Z,54.50
2017-07-06T02:09:31.881Z,54.40
2017-07-06T02:11:57.899Z,54.80
2017-07-06T02:14:23.964Z,54.40
2017-07-06T02:16:50.026Z,54.60
2017-07-06T02:19:16.087Z,54.60
2017-07-06T02:21:42.162Z,54.40
2017-07-06T02:24:08.242Z,54.30
2017-07-06T02:26:34.286Z,54.30
2017-07-06T02:29:00.378Z,54.40
2017-07-06T02:31:26.431Z,54.20
2017-07-06T02:33:52.484Z,54.20
2017-07-06T02:36:18.556Z,54.40
2017-07-06T02:38:44.609Z,54.50
2017-07-06T02:41:10.666Z,54.40
2017-07-06T02:43:36.735Z,54.60
2017-07-06T02:46:02.787Z,54.90
2017-07-06T02:48:28.847Z,54.90
2017-07-06T02:50:54.896Z,55.10
2017-07-06T02:53:20.950Z,55.30
2017-07-06T02:55:47.003Z,55.20
2017-07-06T02:58:13.975Z,55.30
2017-07-06T03:00:40.069Z,55.30
2017-07-06T03:03:06.135Z,55.40
2017-07-06T03:05:32.197Z,55.40
2017-07-06T03:07:58.257Z,55.40
2017-07-06T03:10:24.324Z,55.50
2017-07-06T03:12:50.382Z,55.50
2017-07-06T03:15:16.442Z,55.50
2017-07-06T03:17:42.528Z,55.70
2017-07-06T03:20:08.582Z,55.60
2017-07-06T03:22:34.638Z,55.70
2017-07-06T03:25:00.688Z,55.90
2017-07-06T03:27:26.750Z,56.00
2017-07-06T03:29:52.813Z,56.00
2017-07-06T03:32:18.863Z,55.90
2017-07-06T03:34:44.939Z,55.90
2017-07-06T03:37:11.008Z,56.00
2017-07-06T03:39:37.074Z,55.90
2017-07-06T03:42:03.118Z,56.00
2017-07-06T03:44:29.187Z,56.00
2017-07-06T03:46:55.246Z,56.10
2017-07-06T03:49:21.298Z,56.10
2017-07-06T03:51:48.094Z,56.80
2017-07-06T03:54:14.156Z,56.20
2017-07-06T03:56:40.204Z,56.00
2017-07-06T03:59:06.254Z,56.10
2017-07-06T04:01:32.286Z,56.10
2017-07-06T04:03:58.329Z,55.80
2017-07-06T04:06:24.377Z,55.80
2017-07-06T04:08:50.406Z,55.50
2017-07-06T04:11:16.471Z,55.70
2017-07-06T04:13:42.514Z,55.70
2017-07-06T04:16:08.556Z,55.80
2017-07-06T04:18:34.598Z,56.00
2017-07-06T04:21:00.635Z,55.70
2017-07-06T04:23:26.667Z,55.70
2017-07-06T04:25:52.709Z,56.00
2017-07-06T04:28:18.747Z,56.00
2017-07-06T04:30:44.788Z,56.10
2017-07-06T04:33:10.863Z,56.10
2017-07-06T04:35:36.907Z,55.90
2017-07-06T04:38:03.690Z,56.10
2017-07-06T04:40:29.734Z,56.00
2017-07-06T04:42:55.771Z,55.90
2017-07-06T04:45:21.806Z,55.60
2017-07-06T04:47:47.851Z,55.90
2017-07-06T04:50:13.899Z,56.40
2017-07-06T04:52:39.938Z,56.40
2017-07-06T04:55:05.984Z,56.60
2017-07-06T04:57:32.023Z,56.60
2017-07-06T04:59:58.059Z,56.00
2017-07-06T05:02:24.107Z,56.20
2017-07-06T05:04:50.154Z,56.20
2017-07-06T05:07:16.198Z,56.70
2017-07-06T05:09:42.231Z,56.80
2017-07-06T05:12:08.271Z,56.90
2017-07-06T05:14:34.346Z,57.10
2017-07-06T05:17:00.397Z,56.70
2017-07-06T05:19:26.443Z,57.00
2017-07-06T05:21:52.483Z,57.20
2017-07-06T05:24:18.526Z,57.50
2017-07-06T05:26:44.562Z,57.30
2017-07-06T05:29:10.607Z,56.70
2017-07-06T05:31:36.657Z,57.10
2017-07-06T05:34:02.719Z,57.40
2017-07-06T05:36:28.783Z,57.10
2017-07-06T05:38:54.830Z,58.00
2017-07-06T05:41:20.923Z,57.40
2017-07-06T05:43:46.986Z,56.60
2017-07-06T05:46:13.090Z,55.80
2017-07-06T05:48:53.979Z,57.10
2017-07-06T05:51:20.093Z,56.70
2017-07-06T05:53:46.194Z,57.00
2017-07-06T05:56:12.234Z,56.60
2017-07-06T05:58:38.288Z,57.10
2017-07-06T06:01:04.337Z,57.40
2017-07-06T06:03:30.403Z,56.60
2017-07-06T06:05:57.202Z,55.80
2017-07-06T06:08:23.246Z,55.80
2017-07-06T06:11:20.359Z,55.50
2017-07-06T06:13:46.562Z,56.50
2017-07-06T06:16:27.584Z,56.70
2017-07-06T06:18:53.657Z,55.60
2017-07-06T06:21:19.716Z,57.20
2017-07-06T06:23:45.787Z,57.40
2017-07-06T06:26:11.850Z,56.60
2017-07-06T06:28:37.909Z,56.10
2017-07-06T06:31:03.974Z,57.80
2017-07-06T06:33:30.038Z,56.60
2017-07-06T06:35:56.103Z,56.20
2017-07-06T06:38:22.182Z,56.30
2017-07-06T06:40:48.262Z,57.60
2017-07-06T06:43:14.338Z,57.60
2017-07-06T06:45:40.398Z,58.40
2017-07-06T06:48:06.454Z,57.70
2017-07-06T06:50:32.547Z,57.40
2017-07-06T06:52:58.623Z,57.60
2017-07-06T06:55:25.419Z,57.80
2017-07-06T06:57:51.501Z,57.80
2017-07-06T07:00:17.588Z,57.30
2017-07-06T07:02:43.652Z,57.10
2017-07-06T07:05:09.717Z,57.60
2017-07-06T07:07:35.777Z,56.90
2017-07-06T07:10:01.854Z,57.30
2017-07-06T07:12:27.942Z,57.10
2017-07-06T07:14:54.007Z,57.30
2017-07-06T07:17:20.072Z,57.20
2017-07-06T07:19:46.130Z,56.90
2017-07-06T07:22:12.196Z,56.70
2017-07-06T07:24:38.249Z,56.20
2017-07-06T07:27:04.498Z,56.80
2017-07-06T07:30:02.074Z,57.20
2017-07-06T07:32:28.152Z,57.50
2017-07-06T07:34:54.211Z,57.30
2017-07-06T07:37:20.299Z,56.70
2017-07-06T07:39:46.381Z,57.20
2017-07-06T07:42:12.434Z,56.70
2017-07-06T07:44:38.492Z,56.30
2017-07-06T07:47:04.755Z,56.30
2017-07-06T07:49:30.823Z,56.70
2017-07-06T07:51:56.887Z,56.90
2017-07-06T07:54:23.016Z,56.80
2017-07-06T07:56:49.132Z,56.30
2017-07-06T07:59:15.261Z,56.70
2017-07-06T08:01:42.294Z,55.90
2017-07-06T08:04:08.375Z,56.50
2017-07-06T08:06:34.444Z,57.00
2017-07-06T08:09:00.860Z,56.70
2017-07-06T08:11:26.955Z,56.60
2017-07-06T08:13:53.045Z,56.40
2017-07-06T08:16:19.139Z,56.60
2017-07-06T08:18:45.281Z,56.30
2017-07-06T08:21:11.338Z,55.70
2017-07-06T08:23:37.415Z,55.70
2017-07-06T08:26:03.494Z,55.40
2017-07-06T08:28:29.573Z,55.40
2017-07-06T08:30:56.025Z,55.50
2017-07-06T08:33:22.234Z,55.20
2017-07-06T08:35:48.307Z,55.60
2017-07-06T08:38:14.383Z,55.60
2017-07-06T08:40:40.475Z,56.80
2017-07-06T08:43:06.559Z,56.80
2017-07-06T08:45:32.644Z,55.60
2017-07-06T08:47:58.735Z,55.40
2017-07-06T08:50:24.834Z,54.80
2017-07-06T08:52:51.099Z,55.50
2017-07-06T08:55:17.171Z,55.10
2017-07-06T08:57:43.988Z,55.70
2017-07-06T09:00:10.109Z,55.70
2017-07-06T09:02:36.183Z,54.80
2017-07-06T09:05:02.290Z,54.50
2017-07-06T09:07:28.383Z,54.50
2017-07-06T09:09:54.594Z,54.50
2017-07-06T09:12:20.693Z,54.10
2017-07-06T09:14:46.859Z,54.20
2017-07-06T09:17:12.924Z,54.00
2017-07-06T09:19:39.729Z,53.70
2017-07-06T09:22:05.841Z,53.80
2017-07-06T09:24:31.889Z,53.40
2017-07-06T09:26:58.016Z,53.60
2017-07-06T09:29:24.108Z,54.00
2017-07-06T09:31:50.170Z,54.30
2017-07-06T09:34:17.391Z,54.00
2017-07-06T09:36:44.327Z,53.70
2017-07-06T09:39:10.361Z,53.60
2017-07-06T09:41:36.413Z,53.60
2017-07-06T09:44:02.456Z,54.00
2017-07-06T09:46:28.500Z,53.50
2017-07-06T09:48:54.577Z,53.40
2017-07-06T09:51:20.648Z,52.60
2017-07-06T09:53:46.763Z,53.20
2017-07-06T09:56:12.811Z,53.40
2017-07-06T09:58:39.008Z,53.70
2017-07-06T10:01:05.058Z,53.00
2017-07-06T10:03:31.106Z,53.20
2017-07-06T10:05:57.137Z,53.20
2017-07-06T10:08:23.190Z,53.40
2017-07-06T10:10:49.242Z,52.80
2017-07-06T10:13:15.275Z,52.70
2017-07-06T10:15:41.351Z,53.30
2017-07-06T10:18:07.408Z,53.60
2017-07-06T10:20:34.248Z,53.30
2017-07-06T10:23:00.294Z,53.30
2017-07-06T10:25:26.333Z,53.30
2017-07-06T10:27:52.387Z,52.60
2017-07-06T10:30:18.442Z,52.00
2017-07-06T10:32:44.519Z,52.00
2017-07-06T10:35:10.578Z,52.50
2017-07-06T10:37:36.667Z,52.20
2017-07-06T10:40:03.490Z,52.40
2017-07-06T10:42:29.595Z,52.50
2017-07-06T10:44:55.643Z,52.80
2017-07-06T10:47:21.756Z,53.10
2017-07-06T10:50:02.808Z,53.80
2017-07-06T10:52:28.882Z,53.20
2017-07-06T10:54:54.923Z,53.00
2017-07-06T10:57:20.975Z,52.80
2017-07-06T10:59:47.027Z,53.00
2017-07-06T11:02:13.104Z,52.40
2017-07-06T11:04:39.886Z,52.00
2017-07-06T11:07:05.933Z,52.20
2017-07-06T11:09:31.974Z,52.10
2017-07-06T11:11:58.198Z,52.00
2017-07-06T11:14:24.246Z,52.20
2017-07-06T11:16:50.315Z,52.20
2017-07-06T11:19:16.389Z,52.10
2017-07-06T11:21:42.456Z,51.90
2017-07-06T11:24:08.515Z,52.00
2017-07-06T11:26:34.573Z,51.50
2017-07-06T11:29:00.660Z,51.70
2017-07-06T11:31:41.716Z,51.60
2017-07-06T11:34:08.089Z,51.60
2017-07-06T11:36:34.147Z,51.70
2017-07-06T11:39:00.963Z,51.10
2017-07-06T11:41:27.027Z,51.10
2017-07-06T11:43:53.339Z,51.40
2017-07-06T11:46:19.402Z,51.00
2017-07-06T11:48:45.459Z,51.00
2017-07-06T11:51:11.515Z,51.40
2017-07-06T11:53:37.586Z,51.40
2017-07-06T11:56:35.485Z,51.20
2017-07-06T11:59:01.551Z,51.40
2017-07-06T12:01:43.319Z,51.00
2017-07-06T12:04:09.379Z,51.20
2017-07-06T12:06:51.145Z,51.20
2017-07-06T12:09:17.223Z,51.20
2017-07-06T12:11:43.347Z,51.20
2017-07-06T12:14:09.420Z,51.10
2017-07-06T12:16:35.749Z,51.00
2017-07-06T12:19:01.803Z,50.80
2017-07-06T12:21:27.859Z,50.40
2017-07-06T12:23:54.210Z,50.30
2017-07-06T12:26:20.271Z,50.10
2017-07-06T12:28:46.344Z,50.30
2017-07-06T13:06:47.895Z,50.00
2017-07-06T13:09:13.942Z,47.00
2017-07-06T13:11:39.992Z,47.10
2017-07-06T13:14:06.039Z,47.30
2017-07-06T13:16:32.102Z,47.30
2017-07-06T13:18:58.187Z,47.40
2017-07-06T13:21:24.340Z,47.60
2017-07-06T13:24:02.622Z,47.00
2017-07-06T13:26:28.710Z,47.30
2017-07-06T13:33:15.785Z,47.20
2017-07-06T13:36:12.148Z,47.20
2017-07-06T13:38:38.215Z,46.90
2017-07-06T13:41:04.273Z,47.00
2017-07-06T13:43:30.366Z,47.00
2017-07-06T13:45:56.426Z,47.20
2017-07-06T13:48:22.460Z,46.10
2017-07-06T13:50:49.416Z,46.40
2017-07-06T13:53:15.445Z,46.20
2017-07-06T13:55:41.720Z,46.00
2017-07-06T13:58:07.816Z,45.90
2017-07-06T14:00:33.884Z,45.40
2017-07-06T14:02:59.942Z,45.70
2017-07-06T14:05:32.022Z,46.00
2017-07-06T14:08:03.484Z,45.50
2017-07-06T14:10:29.791Z,44.80
2017-07-06T14:12:56.074Z,45.20
2017-07-06T14:15:22.174Z,45.30
2017-07-06T14:17:48.247Z,44.70
2017-07-06T14:20:14.311Z,44.80
2017-07-06T14:22:41.114Z,44.90
2017-07-06T14:25:07.169Z,44.90
2017-07-06T14:27:33.261Z,44.10
2017-07-06T14:29:59.347Z,44.40
2017-07-06T14:32:41.286Z,44.00
2017-07-06T14:35:07.520Z,44.20
2017-07-06T14:37:33.582Z,44.70
2017-07-06T14:39:59.664Z,44.00
2017-07-06T14:42:25.750Z,44.20
2017-07-06T14:44:52.570Z,44.20
2017-07-06T14:47:18.895Z,44.10
2017-07-06T14:49:44.990Z,43.80
2017-07-06T14:52:11.087Z,43.50
2017-07-06T14:54:37.157Z,43.10
2017-07-06T14:57:03.282Z,43.10
2017-07-06T14:59:29.327Z,43.30
2017-07-06T15:01:55.386Z,43.70
2017-07-06T15:04:21.468Z,42.70
2017-07-06T15:06:47.523Z,42.50
2017-07-06T15:09:13.582Z,42.80
2017-07-06T15:11:39.657Z,43.40
2017-07-06T15:14:05.745Z,42.40
2017-07-06T15:16:31.859Z,42.30
2017-07-06T15:18:58.125Z,42.40
2017-07-06T15:21:24.565Z,41.90
2017-07-06T15:23:50.619Z,42.20
2017-07-06T15:26:16.663Z,41.70
2017-07-06T15:28:43.475Z,42.00
2017-07-06T15:31:09.546Z,41.90
2017-07-06T15:33:35.590Z,41.40
2017-07-06T15:36:01.661Z,41.60
2017-07-06T15:38:27.712Z,40.80
2017-07-06T15:40:53.886Z,41.40
2017-07-06T15:43:19.946Z,41.20
2017-07-06T15:45:46.009Z,41.20
2017-07-06T15:48:12.085Z,42.50
2017-07-06T15:50:38.139Z,41.30
2017-07-06T15:53:04.196Z,41.00
2017-07-06T15:55:30.271Z,41.20
2017-07-06T15:57:56.335Z,41.10
2017-07-06T16:00:22.418Z,42.10
2017-07-06T16:02:49.488Z,41.10
2017-07-06T16:05:16.289Z,40.50
2017-07-06T16:07:42.360Z,40.50
2017-07-06T16:10:08.486Z,41.90
2017-07-06T16:12:35.287Z,41.00
2017-07-06T16:15:01.449Z,41.20
2017-07-06T16:17:42.475Z,40.80
2017-07-06T16:20:08.538Z,40.80
2017-07-06T16:22:34.604Z,42.30
2017-07-06T16:25:01.519Z,41.20
2017-07-06T16:27:27.567Z,41.20
2017-07-06T16:29:53.647Z,40.80
2017-07-06T16:32:19.711Z,40.90
2017-07-06T16:34:45.788Z,41.10
2017-07-06T16:37:11.861Z,41.10
2017-07-06T16:39:37.930Z,41.40
2017-07-06T16:42:03.995Z,41.60
2017-07-06T16:44:30.055Z,41.50
2017-07-06T16:46:56.254Z,42.10
2017-07-06T16:49:22.361Z,41.40
2017-07-06T16:51:48.459Z,41.30
2017-07-06T16:54:29.485Z,41.50
2017-07-06T16:56:55.618Z,41.40
2017-07-06T16:59:21.671Z,41.70
2017-07-06T17:01:47.746Z,41.60
2017-07-06T17:04:13.795Z,41.70
2017-07-06T17:06:39.888Z,41.70
2017-07-06T17:09:06.104Z,41.90
2017-07-06T17:11:32.174Z,41.70
2017-07-06T17:13:58.234Z,41.90
2017-07-06T17:16:24.319Z,41.90
2017-07-06T17:18:50.362Z,42.00
2017-07-06T17:21:16.397Z,42.10
2017-07-06T17:23:42.458Z,41.90
2017-07-06T17:26:08.506Z,42.10
2017-07-06T17:28:34.559Z,42.10
2017-07-06T17:31:00.634Z,42.20
2017-07-06T17:33:27.191Z,42.30
2017-07-06T17:35:53.237Z,42.40
2017-07-06T17:38:19.285Z,42.10
2017-07-06T17:40:45.329Z,42.50
2017-07-06T17:43:11.386Z,42.30
2017-07-06T17:45:37.439Z,42.40
2017-07-06T17:48:03.473Z,42.20
2017-07-06T17:50:29.524Z,42.60
2017-07-06T17:52:55.799Z,42.40
2017-07-06T17:55:21.839Z,42.70
2017-07-06T17:57:47.883Z,42.50
2017-07-06T18:00:13.924Z,42.60
2017-07-06T18:02:40.000Z,42.70
2017-07-06T18:05:21.013Z,42.70
2017-07-06T18:07:47.070Z,42.80
2017-07-06T18:10:13.115Z,42.70
2017-07-06T18:12:39.163Z,43.00
2017-07-06T18:15:05.367Z,43.00
2017-07-06T18:17:31.423Z,42.90
2017-07-06T18:19:57.527Z,43.20
2017-07-06T18:22:23.594Z,43.10
2017-07-06T18:24:49.672Z,43.40
2017-07-06T18:27:15.731Z,43.10
2017-07-06T18:29:41.794Z,43.40
2017-07-06T18:32:07.878Z,43.40
2017-07-06T18:34:33.948Z,43.70
2017-07-06T18:37:00.242Z,43.40
2017-07-06T18:39:26.293Z,43.40
2017-07-06T18:41:52.357Z,43.40
2017-07-06T18:44:18.427Z,43.60
2017-07-06T18:46:44.499Z,43.60
2017-07-06T18:49:10.565Z,43.70
2017-07-06T18:51:36.632Z,43.80
2017-07-06T18:54:02.689Z,43.90
2017-07-06T18:56:28.753Z,44.00
2017-07-06T18:58:55.067Z,44.00
2017-07-06T19:01:21.115Z,44.10
2017-07-06T19:03:47.251Z,44.00
2017-07-06T19:06:44.183Z,44.00
2017-07-06T19:09:10.234Z,44.10
2017-07-06T19:11:36.314Z,44.30
2017-07-06T19:14:02.374Z,44.40
2017-07-06T19:16:28.439Z,44.50
2017-07-06T19:18:54.710Z,44.50
2017-07-06T19:21:20.748Z,44.50
2017-07-06T19:23:46.777Z,44.70
2017-07-06T19:26:12.811Z,44.70
2017-07-06T19:28:38.859Z,45.00
2017-07-06T19:31:05.651Z,44.90
2017-07-06T19:33:31.708Z,44.90
2017-07-06T19:35:57.742Z,45.00
2017-07-06T19:38:23.802Z,46.10
2017-07-06T19:40:50.158Z,46.20
2017-07-06T19:43:31.199Z,46.70
2017-07-06T19:45:57.247Z,46.20
2017-07-06T19:48:23.290Z,46.00
2017-07-06T19:50:49.326Z,46.10
2017-07-06T19:53:15.376Z,46.50
2017-07-06T19:55:41.412Z,45.80
2017-07-06T19:58:07.451Z,46.00
2017-07-06T20:00:34.245Z,46.40
2017-07-06T20:03:00.363Z,46.30
2017-07-06T20:05:26.402Z,46.00
2017-07-06T20:07:52.439Z,46.00
2017-07-06T20:10:18.475Z,45.50
2017-07-06T20:12:44.519Z,45.90
2017-07-06T20:15:11.302Z,46.50
2017-07-06T20:17:37.358Z,46.50
2017-07-06T20:20:03.403Z,46.50
2017-07-06T20:22:29.457Z,48.70
2017-07-06T20:24:55.814Z,47.20
2017-07-06T20:27:21.860Z,49.00
2017-07-06T20:29:47.899Z,48.90
2017-07-06T20:32:13.967Z,49.40
2017-07-06T20:34:40.015Z,51.80
2017-07-06T20:37:06.048Z,49.80
2017-07-06T20:39:32.125Z,50.80
2017-07-06T20:41:58.909Z,49.10
2017-07-06T20:44:24.989Z,49.10
2017-07-06T20:46:51.285Z,49.00
2017-07-06T20:49:17.354Z,48.90
2017-07-06T20:51:44.137Z,50.10
2017-07-06T20:54:10.205Z,50.20
2017-07-06T20:56:36.242Z,49.50
2017-07-06T20:59:02.290Z,49.90
2017-07-06T21:01:28.366Z,50.80
2017-07-06T21:03:54.409Z,52.10
2017-07-06T21:06:20.517Z,50.90
2017-07-06T21:08:46.779Z,50.60
2017-07-06T21:11:12.892Z,50.80
2017-07-06T21:13:39.004Z,54.10
2017-07-06T21:16:05.128Z,53.00
2017-07-06T21:18:31.230Z,54.50
2017-07-06T21:20:57.280Z,51.10
2017-07-06T21:23:23.409Z,50.40
2017-07-06T21:25:49.587Z,53.40
2017-07-06T21:28:16.492Z,51.20
2017-07-06T21:30:42.777Z,51.20
2017-07-06T21:33:09.617Z,52.00
2017-07-06T21:35:35.681Z,53.50
2017-07-06T21:38:01.727Z,53.70
2017-07-06T21:40:27.769Z,51.90
2017-07-06T21:42:53.818Z,51.10
2017-07-06T21:45:19.879Z,52.90
2017-07-06T21:47:45.925Z,53.60
2017-07-06T21:50:11.983Z,53.20
2017-07-06T21:52:38.243Z,51.70
2017-07-06T21:55:04.298Z,51.10
2017-07-06T21:57:30.327Z,52.60
2017-07-06T21:59:56.389Z,54.10
2017-07-06T22:02:22.437Z,52.30
2017-07-06T22:04:48.479Z,52.60
2017-07-06T22:07:14.530Z,52.00
2017-07-06T22:09:40.578Z,53.60
2017-07-06T22:12:06.658Z,52.40
2017-07-06T22:14:34.015Z,53.00
2017-07-06T22:17:00.066Z,53.90
2017-07-06T22:19:26.122Z,53.60
2017-07-06T22:21:52.163Z,53.10
2017-07-06T22:24:18.198Z,54.30
2017-07-06T22:26:44.231Z,55.10
2017-07-06T22:29:10.272Z,55.40
2017-07-06T22:31:36.335Z,55.70
2017-07-06T22:34:02.391Z,55.90
2017-07-06T22:36:28.539Z,55.70
2017-07-06T22:38:54.596Z,55.70
2017-07-06T22:41:20.676Z,55.30
2017-07-06T22:43:46.717Z,54.90
2017-07-06T22:46:12.769Z,55.00
2017-07-06T22:48:38.821Z,55.00
2017-07-06T22:51:04.875Z,55.40
2017-07-06T22:53:30.929Z,54.80
2017-07-06T22:55:56.994Z,54.60
2017-07-06T22:58:23.073Z,54.00
2017-07-06T23:00:49.148Z,54.50
2017-07-06T23:03:15.203Z,53.80
2017-07-06T23:05:41.262Z,55.00
2017-07-06T23:08:07.329Z,54.80
2017-07-06T23:10:33.391Z,54.20
2017-07-06T23:12:59.470Z,53.90
2017-07-06T23:15:25.523Z,53.70
2017-07-06T23:17:51.595Z,53.20
2017-07-06T23:20:17.982Z,53.20
2017-07-06T23:22:44.050Z,53.10
2017-07-06T23:25:10.106Z,53.10
2017-07-06T23:27:36.180Z,53.00
2017-07-06T23:30:02.334Z,53.10
2017-07-06T23:32:28.402Z,53.00
2017-07-06T23:34:54.492Z,53.00
2017-07-06T23:37:20.547Z,53.30
2017-07-06T23:39:46.630Z,53.40
2017-07-06T23:42:12.791Z,53.80
2017-07-06T23:44:38.869Z,54.50
2017-07-06T23:47:04.937Z,54.10
2017-07-06T23:49:31.006Z,53.80
2017-07-06T23:51:57.807Z,55.10
2017-07-06T23:54:23.875Z,55.10
2017-07-06T23:56:49.935Z,54.80
2017-07-06T23:59:15.995Z,54.70
